createdAt,value
2023-04-21T00:02:47.039Z,8.81
2023-04-21T00:05:25.802Z,8.91
2023-04-21T00:07:58.006Z,8.89
2023-04-21T00:10:27.637Z,8.80
2023-04-21T00:12:58.490Z,8.89
2023-04-21T00:15:26.713Z,8.84
2023-04-21T00:18:04.514Z,8.88
2023-04-21T00:20:33.102Z,8.84
2023-04-21T00:23:02.260Z,8.85
2023-04-21T00:25:45.760Z,8.69
2023-04-21T00:28:15.672Z,8.75
2023-04-21T00:30:46.679Z,8.54
2023-04-21T00:33:18.918Z,8.44
2023-04-21T00:35:47.370Z,8.48
2023-04-21T00:38:15.651Z,8.46
2023-04-21T00:40:43.700Z,8.44
2023-04-21T00:43:11.824Z,8.36
2023-04-21T00:45:39.969Z,8.13
2023-04-21T00:48:08.288Z,8.19
2023-04-21T00:50:37.759Z,8.37
2023-04-21T00:53:05.945Z,8.38
2023-04-21T00:55:34.184Z,8.20
2023-04-21T00:58:04.031Z,8.31
2023-04-21T01:00:32.279Z,8.30
2023-04-21T01:03:02.681Z,8.36
2023-04-21T01:05:34.761Z,8.27
2023-04-21T01:08:12.039Z,8.11
2023-04-21T01:14:27.391Z,8.08
2023-04-21T01:17:00.436Z,7.96
2023-04-21T01:19:34.319Z,8.07
2023-04-21T01:22:04.291Z,8.09
2023-04-21T01:24:40.093Z,8.04
2023-04-21T01:27:11.883Z,8.14
2023-04-21T01:29:41.589Z,8.14
2023-04-21T01:32:15.575Z,8.32
2023-04-21T01:34:44.313Z,8.25
2023-04-21T01:37:16.051Z,8.20
2023-04-21T01:39:52.190Z,8.41
2023-04-21T01:42:20.373Z,8.40
2023-04-21T01:44:51.147Z,8.25
2023-04-21T01:47:20.070Z,8.10
2023-04-21T01:49:48.073Z,7.97
2023-04-21T01:52:17.834Z,8.16
2023-04-21T01:54:45.952Z,7.99
2023-04-21T01:57:13.895Z,8.05
2023-04-21T01:59:43.496Z,8.12
2023-04-21T02:02:11.628Z,7.88
2023-04-21T02:04:40.297Z,7.97
2023-04-21T02:07:08.423Z,8.00
2023-04-21T02:09:37.860Z,8.04
2023-04-21T02:12:09.411Z,7.93
2023-04-21T02:14:39.518Z,7.90
2023-04-21T02:17:07.374Z,8.00
2023-04-21T02:19:38.776Z,8.11
2023-04-21T02:22:08.400Z,8.16
2023-04-21T02:24:41.141Z,8.02
2023-04-21T02:27:10.590Z,8.03
2023-04-21T02:29:38.912Z,8.01
2023-04-21T02:32:22.125Z,7.85
2023-04-21T02:34:53.093Z,7.95
2023-04-21T02:37:21.314Z,7.89
2023-04-21T02:39:52.098Z,7.91
2023-04-21T02:42:20.161Z,7.73
2023-04-21T02:44:48.349Z,7.98
2023-04-21T02:47:17.525Z,7.88
2023-04-21T02:49:45.704Z,7.94
2023-04-21T02:52:13.798Z,7.94
2023-04-21T02:54:42.396Z,7.94
2023-04-21T02:57:11.879Z,7.89
2023-04-21T02:59:40.348Z,7.83
2023-04-21T03:02:08.428Z,7.75
2023-04-21T03:04:36.552Z,7.78
2023-04-21T03:07:04.659Z,7.64
2023-04-21T03:09:33.121Z,7.88
2023-04-21T03:12:03.292Z,7.86
2023-04-21T03:14:32.793Z,7.92
2023-04-21T03:17:00.887Z,7.83
2023-04-21T03:19:29.875Z,7.88
2023-04-21T03:22:00.974Z,7.89
2023-04-21T03:24:30.038Z,7.82
2023-04-21T03:26:58.292Z,7.75
2023-04-21T03:29:26.624Z,7.88
2023-04-21T03:31:56.133Z,7.74
2023-04-21T03:34:24.250Z,7.89
2023-04-21T03:36:52.248Z,7.87
2023-04-21T03:39:20.729Z,7.88
2023-04-21T03:41:49.263Z,7.81
2023-04-21T03:44:18.784Z,7.70
2023-04-21T03:46:46.878Z,7.75
2023-04-21T03:49:16.293Z,7.77
2023-04-21T03:51:45.301Z,7.77
2023-04-21T03:54:13.531Z,7.65
2023-04-21T03:56:41.845Z,7.58
2023-04-21T03:59:10.080Z,7.50
2023-04-21T04:01:39.157Z,7.55
2023-04-21T04:04:08.640Z,7.43
2023-04-21T04:06:38.389Z,7.40
2023-04-21T04:09:08.973Z,7.52
2023-04-21T04:11:38.597Z,7.47
2023-04-21T04:14:06.919Z,7.39
2023-04-21T04:16:37.439Z,7.47
2023-04-21T04:19:09.240Z,7.43
2023-04-21T04:21:40.889Z,7.36
2023-04-21T04:24:11.202Z,7.29
2023-04-21T04:26:40.135Z,7.32
2023-04-21T04:29:11.622Z,7.39
2023-04-21T04:31:41.953Z,7.32
2023-04-21T04:34:11.544Z,7.28
2023-04-21T04:36:43.606Z,7.16
2023-04-21T04:39:12.381Z,7.29
2023-04-21T04:41:49.580Z,7.29
2023-04-21T04:44:18.374Z,7.37
2023-04-21T04:46:47.182Z,7.31
2023-04-21T04:49:17.491Z,7.27
2023-04-21T04:51:47.141Z,7.28
2023-04-21T04:54:19.263Z,7.28
2023-04-21T04:56:47.605Z,7.37
2023-04-21T04:59:21.629Z,7.45
2023-04-21T05:01:49.674Z,7.43
2023-04-21T05:04:18.164Z,7.38
2023-04-21T05:06:47.721Z,7.31
2023-04-21T05:09:26.147Z,7.44
2023-04-21T05:11:54.171Z,7.62
2023-04-21T05:14:22.174Z,7.77
2023-04-21T05:16:56.187Z,7.78
2023-04-21T05:19:26.065Z,7.89
2023-04-21T05:22:06.627Z,7.93
2023-04-21T05:24:43.170Z,7.87
2023-04-21T05:27:12.432Z,8.06
2023-04-21T05:29:55.818Z,8.13
2023-04-21T05:32:31.386Z,8.30
2023-04-21T05:35:00.472Z,8.37
2023-04-21T05:37:31.921Z,8.40
2023-04-21T05:40:06.896Z,8.59
2023-04-21T05:42:42.221Z,8.65
2023-04-21T05:45:13.614Z,8.76
2023-04-21T05:47:42.822Z,8.70
2023-04-21T05:50:12.555Z,8.90
2023-04-21T05:52:44.224Z,9.10
2023-04-21T05:55:15.209Z,9.42
2023-04-21T05:57:48.416Z,9.41
2023-04-21T06:00:20.206Z,9.87
2023-04-21T06:02:57.231Z,9.87
2023-04-21T06:05:25.513Z,10.11
2023-04-21T06:07:55.251Z,10.35
2023-04-21T06:10:26.782Z,10.71
2023-04-21T06:12:54.922Z,10.76
2023-04-21T06:15:23.952Z,10.69
2023-04-21T06:17:54.903Z,10.86
2023-04-21T06:20:24.146Z,10.89
2023-04-21T06:22:52.138Z,11.29
2023-04-21T06:25:21.788Z,11.48
2023-04-21T06:27:49.882Z,11.75
2023-04-21T06:30:18.540Z,11.76
2023-04-21T06:32:48.605Z,11.36
2023-04-21T06:35:17.480Z,11.93
2023-04-21T06:37:50.610Z,11.94
2023-04-21T06:40:19.007Z,11.47
2023-04-21T06:42:49.202Z,12.11
2023-04-21T06:45:23.581Z,12.68
2023-04-21T06:47:51.771Z,12.66
2023-04-21T06:50:20.963Z,12.61
2023-04-21T06:52:49.018Z,12.54
2023-04-21T06:55:17.136Z,12.42
2023-04-21T06:57:45.293Z,12.89
2023-04-21T07:00:15.978Z,12.67
2023-04-21T07:02:45.105Z,13.14
2023-04-21T07:05:13.410Z,13.00
2023-04-21T07:07:41.587Z,13.40
2023-04-21T07:10:10.767Z,13.61
2023-04-21T07:12:40.523Z,12.96
2023-04-21T07:15:11.505Z,12.35
2023-04-21T07:17:41.090Z,12.36
2023-04-21T07:20:10.216Z,12.03
2023-04-21T07:22:39.678Z,11.82
2023-04-21T07:25:09.484Z,11.87
2023-04-21T07:27:39.401Z,11.86
2023-04-21T07:30:08.886Z,12.03
2023-04-21T07:32:38.855Z,12.18
2023-04-21T07:35:11.479Z,12.47
2023-04-21T07:37:40.971Z,12.47
2023-04-21T07:40:13.576Z,12.72
2023-04-21T07:42:41.901Z,12.84
2023-04-21T07:45:11.895Z,12.99
2023-04-21T07:47:40.421Z,13.75
2023-04-21T07:50:13.288Z,14.53
2023-04-21T07:52:41.515Z,14.51
2023-04-21T07:55:11.105Z,14.97
2023-04-21T07:57:40.381Z,14.49
2023-04-21T08:00:12.282Z,14.76
2023-04-21T08:02:41.774Z,15.30
2023-04-21T08:05:11.847Z,15.87
2023-04-21T08:07:40.793Z,15.97
2023-04-21T08:10:10.580Z,16.19
2023-04-21T08:12:39.295Z,15.42
2023-04-21T08:15:09.499Z,15.90
2023-04-21T08:17:39.750Z,16.04
2023-04-21T08:20:09.409Z,16.16
2023-04-21T08:22:41.513Z,16.42
2023-04-21T08:25:10.423Z,15.70
2023-04-21T08:27:41.414Z,15.74
2023-04-21T08:30:11.174Z,16.10
2023-04-21T08:32:40.473Z,16.44
2023-04-21T08:35:10.388Z,16.18
2023-04-21T08:37:40.304Z,16.22
2023-04-21T08:40:10.316Z,16.99
2023-04-21T08:42:39.576Z,15.77
2023-04-21T08:45:09.532Z,15.43
2023-04-21T08:47:42.217Z,14.99
2023-04-21T08:50:17.653Z,15.49
2023-04-21T08:52:47.226Z,16.24
2023-04-21T08:55:16.834Z,16.75
2023-04-21T08:57:45.083Z,17.17
2023-04-21T09:00:17.192Z,17.63
2023-04-21T09:03:01.321Z,17.64
2023-04-21T09:05:31.870Z,18.13
2023-04-21T09:08:11.265Z,17.75
2023-04-21T09:10:46.587Z,18.48
2023-04-21T09:13:15.447Z,17.99
2023-04-21T09:15:47.479Z,17.56
2023-04-21T09:18:18.207Z,17.21
2023-04-21T09:20:49.760Z,17.71
2023-04-21T09:23:23.082Z,17.06
2023-04-21T09:25:51.323Z,17.13
2023-04-21T09:28:23.641Z,17.00
2023-04-21T09:30:57.597Z,16.98
2023-04-21T09:33:31.050Z,17.47
2023-04-21T09:36:05.771Z,17.62
2023-04-21T09:38:43.804Z,18.10
2023-04-21T09:41:18.575Z,17.38
2023-04-21T09:44:01.954Z,17.46
2023-04-21T09:46:36.875Z,16.78
2023-04-21T09:49:08.282Z,16.35
2023-04-21T09:54:54.329Z,17.13
2023-04-21T09:57:26.534Z,17.41
2023-04-21T10:00:06.831Z,17.33
2023-04-21T10:02:38.316Z,17.38
2023-04-21T10:05:12.964Z,17.17
2023-04-21T10:07:43.443Z,16.93
2023-04-21T10:10:21.904Z,17.18
2023-04-21T10:12:51.444Z,17.78
2023-04-21T10:15:40.535Z,18.18
2023-04-21T10:18:20.330Z,17.75
2023-04-21T10:20:57.185Z,17.41
2023-04-21T10:23:33.311Z,18.56
2023-04-21T10:26:08.492Z,18.96
2023-04-21T10:28:48.332Z,20.52
2023-04-21T10:31:21.813Z,21.51
2023-04-21T10:34:17.946Z,21.31
2023-04-21T10:37:16.554Z,21.20
2023-04-21T10:39:58.401Z,20.98
2023-04-21T10:42:37.357Z,20.32
2023-04-21T10:45:12.723Z,20.21
2023-04-21T10:47:49.786Z,21.29
2023-04-21T10:50:20.902Z,21.36
2023-04-21T10:53:01.091Z,21.59
2023-04-21T10:55:31.591Z,20.24
2023-04-21T10:58:04.086Z,19.98
2023-04-21T11:00:32.662Z,20.63
2023-04-21T11:03:04.942Z,21.16
2023-04-21T11:05:41.422Z,20.75
2023-04-21T11:08:12.808Z,21.53
2023-04-21T11:10:57.000Z,20.70
2023-04-21T11:13:29.304Z,19.82
2023-04-21T11:15:59.380Z,19.35
2023-04-21T11:18:38.155Z,19.77
2023-04-21T11:21:10.842Z,19.45
2023-04-21T11:23:43.668Z,19.91
2023-04-21T11:26:11.816Z,20.15
2023-04-21T11:28:53.822Z,19.87
2023-04-21T11:31:25.666Z,19.45
2023-04-21T11:34:07.409Z,19.46
2023-04-21T11:36:37.932Z,19.34
2023-04-21T11:39:08.436Z,20.98
2023-04-21T11:41:38.076Z,22.11
2023-04-21T11:44:09.485Z,20.83
2023-04-21T11:46:38.457Z,20.03
2023-04-21T11:49:08.752Z,19.94
2023-04-21T11:51:38.500Z,19.05
2023-04-21T11:54:08.763Z,19.33
2023-04-21T11:56:39.367Z,19.43
2023-04-21T11:59:13.599Z,20.72
2023-04-21T12:01:45.807Z,21.95
2023-04-21T12:04:18.159Z,21.83
2023-04-21T12:06:47.714Z,21.45
2023-04-21T12:09:21.752Z,20.58
2023-04-21T12:11:51.026Z,21.32
2023-04-21T12:14:22.323Z,20.43
2023-04-21T12:16:51.850Z,20.02
2023-04-21T12:19:39.537Z,20.17
2023-04-21T12:22:09.719Z,21.23
2023-04-21T12:24:38.095Z,22.82
2023-04-21T12:27:07.436Z,22.43
2023-04-21T12:29:38.652Z,22.81
2023-04-21T12:32:08.147Z,22.58
2023-04-21T12:34:40.040Z,21.74
2023-04-21T12:37:09.169Z,20.87
2023-04-21T12:39:37.565Z,21.31
2023-04-21T12:42:07.974Z,20.22
2023-04-21T12:44:38.042Z,20.53
2023-04-21T12:47:08.679Z,20.09
2023-04-21T12:49:36.657Z,20.22
2023-04-21T12:52:06.248Z,21.39
2023-04-21T12:54:34.471Z,20.78
2023-04-21T12:57:03.897Z,20.48
2023-04-21T12:59:32.479Z,20.29
2023-04-21T13:02:04.786Z,20.56
2023-04-21T13:04:33.332Z,22.40
2023-04-21T13:07:01.470Z,22.05
2023-04-21T13:09:29.705Z,21.88
2023-04-21T13:11:59.207Z,21.97
2023-04-21T13:14:29.067Z,22.25
2023-04-21T13:16:58.690Z,21.16
2023-04-21T13:19:30.081Z,21.27
2023-04-21T13:21:58.292Z,20.98
2023-04-21T13:24:26.894Z,20.27
2023-04-21T13:26:55.756Z,20.30
2023-04-21T13:29:24.334Z,20.38
2023-04-21T13:31:52.516Z,20.12
2023-04-21T13:34:21.712Z,20.51
2023-04-21T13:36:51.761Z,20.69
2023-04-21T13:39:19.765Z,20.49
2023-04-21T13:41:48.551Z,20.48
2023-04-21T13:44:16.701Z,20.39
2023-04-21T13:46:46.097Z,20.40
2023-04-21T13:49:15.586Z,20.36
2023-04-21T13:51:44.613Z,20.76
2023-04-21T13:54:20.665Z,20.78
2023-04-21T13:56:52.458Z,21.10
2023-04-21T13:59:21.886Z,21.54
2023-04-21T14:01:52.101Z,22.83
2023-04-21T14:04:21.911Z,22.15
2023-04-21T14:06:51.162Z,22.67
2023-04-21T14:09:23.129Z,22.42
2023-04-21T14:12:10.428Z,21.86
2023-04-21T14:14:39.923Z,22.89
2023-04-21T14:17:29.413Z,22.62
2023-04-21T14:20:02.093Z,21.37
2023-04-21T14:22:51.957Z,21.17
2023-04-21T14:25:21.464Z,21.24
2023-04-21T14:27:51.026Z,21.65
2023-04-21T14:30:21.210Z,21.77
2023-04-21T14:32:49.767Z,21.70
2023-04-21T14:35:17.943Z,21.25
2023-04-21T14:37:46.085Z,21.63
2023-04-21T14:40:14.304Z,22.31
2023-04-21T14:42:43.912Z,21.36
2023-04-21T14:45:13.147Z,20.99
2023-04-21T14:47:41.318Z,21.81
2023-04-21T14:50:10.455Z,21.79
2023-04-21T14:52:38.689Z,21.61
2023-04-21T14:55:08.406Z,21.68
2023-04-21T14:57:36.926Z,22.33
2023-04-21T15:00:12.747Z,21.64
2023-04-21T15:02:41.011Z,20.88
2023-04-21T15:05:11.099Z,20.92
2023-04-21T15:07:41.909Z,21.44
2023-04-21T15:10:11.293Z,20.88
2023-04-21T15:12:41.254Z,20.73
2023-04-21T15:15:17.750Z,20.90
2023-04-21T15:17:47.787Z,21.74
2023-04-21T15:20:17.250Z,21.81
2023-04-21T15:22:45.720Z,20.90
2023-04-21T15:25:14.398Z,20.88
2023-04-21T15:27:42.684Z,21.43
2023-04-21T15:30:13.917Z,21.89
2023-04-21T15:32:42.480Z,22.11
2023-04-21T15:35:15.647Z,22.39
2023-04-21T15:37:44.465Z,22.27
2023-04-21T15:40:12.912Z,21.85
2023-04-21T15:42:42.740Z,21.18
2023-04-21T15:45:12.964Z,20.74
2023-04-21T15:47:42.188Z,20.55
2023-04-21T15:50:11.090Z,21.25
2023-04-21T15:52:44.453Z,21.52
2023-04-21T15:55:14.005Z,21.03
2023-04-21T15:57:42.306Z,20.84
2023-04-21T16:00:13.569Z,21.43
2023-04-21T16:02:44.097Z,20.80
2023-04-21T16:05:18.201Z,20.52
2023-04-21T16:07:46.460Z,20.43
2023-04-21T16:10:14.860Z,20.19
2023-04-21T16:12:45.883Z,20.36
2023-04-21T16:15:24.770Z,21.18
2023-04-21T16:17:54.545Z,21.17
2023-04-21T16:20:22.962Z,21.36
2023-04-21T16:22:51.610Z,21.56
2023-04-21T16:25:22.077Z,21.65
2023-04-21T16:27:50.532Z,21.75
2023-04-21T16:30:21.789Z,21.24
2023-04-21T16:32:51.912Z,21.03
2023-04-21T16:35:21.060Z,21.31
2023-04-21T16:37:49.468Z,21.82
2023-04-21T16:40:17.426Z,21.83
2023-04-21T16:42:46.247Z,21.66
2023-04-21T16:45:14.101Z,21.14
2023-04-21T16:47:46.595Z,21.09
2023-04-21T16:50:14.850Z,20.93
2023-04-21T16:52:42.877Z,20.78
2023-04-21T16:55:11.646Z,20.41
2023-04-21T16:57:40.810Z,20.01
2023-04-21T17:00:14.092Z,19.94
2023-04-21T17:02:43.614Z,19.74
2023-04-21T17:05:15.552Z,19.66
2023-04-21T17:07:45.178Z,19.57
2023-04-21T17:10:14.320Z,19.51
2023-04-21T17:12:42.614Z,19.49
2023-04-21T17:15:11.838Z,19.43
2023-04-21T17:17:43.026Z,19.35
2023-04-21T17:20:14.981Z,19.34
2023-04-21T17:22:43.753Z,19.36
2023-04-21T17:25:16.888Z,19.39
2023-04-21T17:27:48.254Z,19.31
2023-04-21T17:30:18.772Z,19.23
2023-04-21T17:32:47.874Z,19.18
2023-04-21T17:35:21.983Z,19.14
2023-04-21T17:37:50.343Z,19.06
2023-04-21T17:40:18.579Z,19.08
2023-04-21T17:42:46.668Z,19.10
2023-04-21T17:45:14.709Z,19.03
2023-04-21T17:47:48.142Z,19.05
2023-04-21T17:50:16.426Z,18.97
2023-04-21T17:52:51.188Z,18.94
2023-04-21T17:55:21.866Z,18.95
2023-04-21T17:57:52.398Z,18.91
2023-04-21T18:00:22.015Z,18.80
2023-04-21T18:02:50.103Z,18.79
2023-04-21T18:05:18.098Z,18.70
2023-04-21T18:07:49.854Z,18.67
2023-04-21T18:10:17.911Z,18.59
2023-04-21T18:12:48.329Z,18.56
2023-04-21T18:15:16.706Z,18.46
2023-04-21T18:17:44.633Z,18.40
2023-04-21T18:20:15.218Z,18.44
2023-04-21T18:22:44.825Z,18.28
2023-04-21T18:25:14.847Z,18.12
2023-04-21T18:27:43.385Z,18.02
2023-04-21T18:30:17.723Z,17.77
2023-04-21T18:32:55.373Z,17.55
2023-04-21T18:35:28.316Z,17.64
2023-04-21T18:37:57.688Z,17.66
2023-04-21T18:40:31.296Z,17.62
2023-04-21T18:43:17.294Z,17.45
2023-04-21T18:46:26.086Z,17.35
2023-04-21T18:49:02.258Z,17.12
2023-04-21T18:51:33.565Z,17.03
2023-04-21T18:54:14.869Z,16.87
2023-04-21T18:56:44.218Z,16.84
2023-04-21T18:59:25.984Z,16.83
2023-04-21T19:01:54.109Z,16.79
2023-04-21T19:04:22.800Z,16.74
2023-04-21T19:06:50.923Z,16.57
2023-04-21T19:09:20.524Z,16.55
2023-04-21T19:11:50.008Z,16.52
2023-04-21T19:14:18.008Z,16.54
2023-04-21T19:16:47.506Z,16.46
2023-04-21T19:19:19.467Z,16.38
2023-04-21T19:21:47.472Z,16.51
2023-04-21T19:24:15.369Z,16.31
2023-04-21T19:26:43.520Z,16.17
2023-04-21T19:29:15.084Z,16.19
2023-04-21T19:31:49.711Z,16.08
2023-04-21T19:34:17.822Z,16.11
2023-04-21T19:36:46.211Z,16.15
2023-04-21T19:39:16.619Z,16.18
2023-04-21T19:41:45.798Z,16.17
2023-04-21T19:44:15.089Z,16.09
2023-04-21T19:46:43.452Z,16.14
2023-04-21T19:49:13.066Z,16.06
2023-04-21T19:51:42.820Z,16.19
2023-04-21T19:54:12.513Z,16.10
2023-04-21T19:56:41.655Z,16.03
2023-04-21T19:59:09.961Z,16.08
2023-04-21T20:01:40.188Z,16.00
2023-04-21T20:04:11.832Z,16.00
2023-04-21T20:06:44.198Z,16.05
2023-04-21T20:09:13.323Z,15.65
2023-04-21T20:11:44.521Z,14.63
2023-04-21T20:14:12.536Z,14.02
2023-04-21T20:16:50.972Z,13.48
2023-04-21T20:19:22.831Z,13.21
2023-04-21T20:21:51.273Z,12.94
2023-04-21T20:24:19.424Z,13.03
2023-04-21T20:26:47.621Z,13.02
2023-04-21T20:29:15.826Z,12.87
2023-04-21T20:31:45.626Z,12.76
2023-04-21T20:34:13.621Z,12.77
2023-04-21T20:36:42.953Z,12.88
2023-04-21T20:39:14.433Z,12.73
2023-04-21T20:41:43.588Z,12.60
2023-04-21T20:44:12.759Z,12.50
2023-04-21T20:46:42.545Z,12.52
2023-04-21T20:49:14.933Z,12.35
2023-04-21T20:51:43.227Z,12.34
2023-04-21T20:54:11.170Z,12.34
2023-04-21T20:56:40.214Z,12.41
2023-04-21T20:59:08.169Z,12.28
2023-04-21T21:01:41.257Z,12.22
2023-04-21T21:04:11.070Z,12.06
2023-04-21T21:06:39.556Z,12.02
2023-04-21T21:09:07.793Z,12.06
2023-04-21T21:11:35.864Z,12.06
2023-04-21T21:14:04.063Z,11.94
2023-04-21T21:16:35.377Z,11.93
2023-04-21T21:19:08.824Z,12.02
2023-04-21T21:21:39.776Z,12.11
2023-04-21T21:24:14.109Z,12.15
2023-04-21T21:26:42.864Z,12.26
2023-04-21T21:29:10.998Z,12.51
2023-04-21T21:31:39.240Z,12.48
2023-04-21T21:34:07.303Z,12.66
2023-04-21T21:36:36.497Z,12.57
2023-04-21T21:39:11.765Z,12.70
2023-04-21T21:41:48.539Z,12.69
2023-04-21T21:44:18.497Z,12.57
2023-04-21T21:46:46.979Z,12.50
2023-04-21T21:49:16.084Z,12.43
2023-04-21T21:51:43.997Z,12.43
2023-04-21T21:54:13.813Z,12.39
2023-04-21T21:56:42.353Z,12.45
2023-04-21T21:59:10.637Z,12.74
2023-04-21T22:01:40.166Z,12.55
2023-04-21T22:04:08.479Z,12.79
2023-04-21T22:06:36.892Z,12.80
2023-04-21T22:09:09.067Z,13.05
2023-04-21T22:11:40.736Z,12.73
2023-04-21T22:14:22.028Z,12.60
2023-04-21T22:16:52.877Z,12.67
2023-04-21T22:19:21.537Z,12.64
2023-04-21T22:21:49.629Z,12.74
2023-04-21T22:24:18.406Z,12.73
2023-04-21T22:26:49.899Z,13.09
2023-04-21T22:29:18.338Z,13.00
2023-04-21T22:31:46.361Z,13.17
2023-04-21T22:34:16.686Z,13.29
2023-04-21T22:36:46.672Z,13.36
2023-04-21T22:39:14.517Z,13.43
2023-04-21T22:41:42.450Z,13.36
2023-04-21T22:44:15.211Z,13.09
2023-04-21T22:46:43.601Z,12.95
2023-04-21T22:49:12.587Z,12.70
2023-04-21T22:51:42.999Z,12.23
2023-04-21T22:54:10.980Z,11.98
2023-04-21T22:56:40.224Z,12.00
2023-04-21T22:59:08.159Z,11.81
2023-04-21T23:01:37.704Z,11.68
2023-04-21T23:04:05.984Z,11.62
2023-04-21T23:06:37.942Z,11.53
2023-04-21T23:09:13.180Z,11.47
2023-04-21T23:11:41.461Z,11.37
2023-04-21T23:14:18.319Z,11.36
2023-04-21T23:16:57.773Z,11.25
2023-04-21T23:20:23.171Z,11.14
2023-04-21T23:24:02.873Z,10.97
2023-04-21T23:26:30.875Z,10.89
2023-04-21T23:29:01.132Z,10.79
2023-04-21T23:31:30.692Z,10.65
2023-04-21T23:34:00.809Z,10.74
2023-04-21T23:36:31.825Z,10.82
2023-04-21T23:39:00.193Z,10.73
2023-04-21T23:41:28.315Z,10.57
2023-04-21T23:43:57.745Z,10.45
2023-04-21T23:46:27.828Z,10.35
2023-04-21T23:48:55.821Z,10.30
2023-04-21T23:51:29.802Z,10.45
2023-04-21T23:54:05.192Z,10.29
2023-04-21T23:56:46.662Z,10.33
2023-04-21T23:59:17.842Z,10.20
